Time;durP1;ratioP1;P1;durP2;ratioP2;P2;SDS_P1;SDS_P2;PMS_P1;PMS_P2;Temp;Humidity;BMP_temperature;BMP_pressure;BME280_temperature;BME280_humidity;BME280_pressure;Samples;Min_cycle;Max_cycle;Signal;HPM_P1;HPM_P2
2021/09/03 00:00:52;;;;;;;16.95;11.03;;;;;;;11.85;76.92;101026.77;2014217;88;30532;-62
2021/09/03 00:03:54;;;;;;;18.07;10.85;;;;;;;11.81;77.12;101024.70;2006588;88;27844;-63
2021/09/03 00:06:56;;;;;;;14.70;10.43;;;;;;;11.81;77.17;101022.47;2003499;88;28778;-63
2021/09/03 00:09:59;;;;;;;16.82;10.60;;;;;;;11.79;77.30;101025.23;2003556;88;31285;-63
2021/09/03 00:13:02;;;;;;;17.52;11.75;;;;;;;11.78;77.24;101018.57;2003801;88;33002;-63
2021/09/03 00:16:04;;;;;;;15.83;10.45;;;;;;;11.78;77.54;101019.91;2003365;88;31711;-63
2021/09/03 00:19:07;;;;;;;16.62;11.30;;;;;;;11.76;77.48;101014.62;2003638;88;27799;-62
2021/09/03 00:22:09;;;;;;;16.90;11.53;;;;;;;11.76;77.60;101017.77;2003561;88;29883;-63
2021/09/03 00:25:12;;;;;;;18.48;11.00;;;;;;;11.75;77.66;101006.16;2003666;88;31233;-63
2021/09/03 00:28:14;;;;;;;16.20;10.58;;;;;;;11.76;77.73;101012.39;1945577;91;32956;-63
2021/09/03 00:31:16;;;;;;;16.75;10.75;;;;;;;11.73;77.67;101006.70;1945771;91;29708;-63
2021/09/03 00:34:18;;;;;;;19.05;12.10;;;;;;;11.72;77.71;101004.09;1945676;91;27776;-63
2021/09/03 00:37:20;;;;;;;19.55;11.12;;;;;;;11.71;78.02;101004.55;1945410;91;30069;-63
2021/09/03 00:40:22;;;;;;;19.17;11.48;;;;;;;11.70;78.12;101001.00;1945519;91;32511;-62
2021/09/03 00:43:29;;;;;;;17.62;11.12;;;;;;;11.69;77.94;101003.28;1945472;91;33374;-62
2021/09/03 00:46:31;;;;;;;17.98;10.82;;;;;;;11.67;77.88;100999.78;1942683;91;29620;-62
2021/09/03 00:49:32;;;;;;;15.65;10.32;;;;;;;11.65;77.92;100998.97;1943469;91;27597;-62
2021/09/03 00:52:34;;;;;;;14.53;11.25;;;;;;;11.63;78.07;100988.77;1943233;90;29122;-62
2021/09/03 00:55:36;;;;;;;17.05;11.75;;;;;;;11.61;78.28;100991.98;2004725;88;32302;-62
2021/09/03 00:58:37;;;;;;;18.95;12.65;;;;;;;11.59;78.34;100991.66;2014451;88;33356;-62
2021/09/03 01:01:39;;;;;;;20.17;11.05;;;;;;;11.55;78.30;100982.39;2014341;88;30534;-62
2021/09/03 01:04:41;;;;;;;15.45;11.40;;;;;;;11.53;78.35;100975.36;2014691;88;27698;-62
2021/09/03 01:07:43;;;;;;;14.00;10.30;;;;;;;11.52;78.31;100973.61;2014693;88;29077;-61
2021/09/03 01:10:44;;;;;;;16.67;10.85;;;;;;;11.49;78.32;100979.10;2014749;88;31430;-62
2021/09/03 01:13:46;;;;;;;15.58;11.18;;;;;;;11.48;78.32;100979.59;2015042;88;33178;-62
2021/09/03 01:16:48;;;;;;;20.55;11.33;;;;;;;11.44;78.50;100971.25;2014497;88;29389;-61
2021/09/03 01:19:51;;;;;;;19.87;12.20;;;;;;;11.40;78.22;100969.18;2014853;88;27788;-63
2021/09/03 01:22:53;;;;;;;15.35;10.45;;;;;;;11.37;78.22;100964.39;2014656;88;29508;-62
2021/09/03 01:25:55;;;;;;;18.35;11.43;;;;;;;11.34;78.16;100977.47;2014714;88;31436;-62
2021/09/03 01:28:56;;;;;;;21.45;11.18;;;;;;;11.31;78.18;100966.87;2014717;88;33594;-62
2021/09/03 01:31:58;;;;;;;15.93;11.33;;;;;;;11.27;78.21;100962.56;2014504;88;30566;-62
2021/09/03 01:35:00;;;;;;;16.95;10.48;;;;;;;11.22;78.32;100960.08;2014562;88;27690;-62
2021/09/03 01:38:06;;;;;;;18.45;11.08;;;;;;;11.20;78.35;100963.77;2055591;84;29163;-62
2021/09/03 01:41:07;;;;;;;16.77;10.90;;;;;;;11.17;78.42;100966.09;2086423;84;31023;-62
2021/09/03 01:44:10;;;;;;;15.55;10.15;;;;;;;11.14;78.50;100962.67;2058471;85;32988;-62
2021/09/03 01:47:11;;;;;;;12.73;10.32;;;;;;;11.09;78.38;100961.53;2085035;85;29120;-62
2021/09/03 01:50:14;;;;;;;15.83;9.90;;;;;;;11.04;78.40;100960.38;2085491;85;27672;-62
2021/09/03 01:53:16;;;;;;;14.10;10.50;;;;;;;11.01;78.37;100960.50;2085654;85;28664;-63
2021/09/03 01:56:18;;;;;;;11.83;9.40;;;;;;;10.97;78.40;100960.22;2085483;84;32248;-62
2021/09/03 01:59:19;;;;;;;12.50;9.63;;;;;;;10.95;78.42;100963.42;2085788;85;32890;-61
2021/09/03 02:02:21;;;;;;;12.73;9.43;;;;;;;10.92;78.55;100954.19;2085952;85;29234;-63
2021/09/03 02:05:22;;;;;;;13.08;9.93;;;;;;;10.90;78.77;100953.38;2085181;85;28227;-62
2021/09/03 02:08:24;;;;;;;9.95;8.53;;;;;;;10.87;78.83;100952.16;2104392;84;28815;-62
2021/09/03 02:11:26;;;;;;;12.85;8.90;;;;;;;10.84;78.74;100953.61;2104594;84;31416;-62
2021/09/03 02:14:28;;;;;;;10.20;8.53;;;;;;;10.81;78.80;100946.58;2104306;84;34305;-62
2021/09/03 02:17:29;;;;;;;11.45;9.15;;;;;;;10.79;78.80;100945.28;2104301;84;29295;-62
2021/09/03 02:20:30;;;;;;;12.68;9.40;;;;;;;10.77;78.80;100945.80;2104680;84;27741;-61
2021/09/03 02:23:32;;;;;;;10.82;8.85;;;;;;;10.76;78.90;100940.52;2104274;84;29135;-61
2021/09/03 02:26:34;;;;;;;11.65;8.95;;;;;;;10.75;78.87;100941.45;2104652;84;31446;-62
2021/09/03 02:29:35;;;;;;;12.65;9.95;;;;;;;10.71;78.92;100938.03;2104351;84;34262;-61
2021/09/03 02:32:37;;;;;;;13.18;8.63;;;;;;;10.70;78.94;100937.63;2105047;84;30062;-62
2021/09/03 02:35:43;;;;;;;15.25;10.43;;;;;;;10.68;78.95;100939.94;2104426;84;27710;-62
2021/09/03 02:38:47;;;;;;;13.50;10.00;;;;;;;10.64;78.99;100937.86;2104654;84;29840;-62
2021/09/03 02:41:49;;;;;;;12.58;8.73;;;;;;;10.62;79.13;100931.23;2104581;84;30981;-62
2021/09/03 02:44:51;;;;;;;12.58;8.55;;;;;;;10.58;79.08;100932.28;2104334;84;33323;-62
2021/09/03 02:47:53;;;;;;;12.68;8.85;;;;;;;10.57;78.90;100932.35;2104296;84;30611;-62
2021/09/03 02:50:55;;;;;;;13.00;9.18;;;;;;;10.55;78.87;100926.17;2104813;84;27733;-62
2021/09/03 02:53:56;;;;;;;15.23;9.30;;;;;;;10.53;78.93;100930.72;2104443;84;29481;-62
2021/09/03 02:56:58;;;;;;;14.80;10.10;;;;;;;10.49;78.94;100922.80;2101425;84;31016;-62
2021/09/03 03:00:00;;;;;;;15.35;9.30;;;;;;;10.47;78.93;100926.00;2105033;84;33970;-62
2021/09/03 03:03:03;;;;;;;11.22;8.33;;;;;;;10.45;79.05;100918.48;2104713;84;29701;-62
2021/09/03 03:06:04;;;;;;;16.05;9.55;;;;;;;10.44;78.97;100919.89;2104477;84;27684;-62
2021/09/03 03:09:06;;;;;;;14.10;8.43;;;;;;;10.42;78.92;100918.63;2104699;84;29112;-62
2021/09/03 03:12:10;;;;;;;13.88;8.88;;;;;;;10.39;78.81;100916.06;2104465;84;31083;-62
2021/09/03 03:15:12;;;;;;;18.57;10.03;;;;;;;10.38;78.82;100909.38;2104575;84;32967;-62
2021/09/03 03:18:14;;;;;;;15.53;9.98;;;;;;;10.36;78.97;100908.11;2104373;84;29397;-62
2021/09/03 03:21:16;;;;;;;13.38;9.20;;;;;;;10.34;79.03;100905.95;2104674;84;27702;-62
2021/09/03 03:24:18;;;;;;;10.35;8.35;;;;;;;10.33;79.07;100905.55;2104308;84;30110;-62
2021/09/03 03:27:20;;;;;;;15.30;9.33;;;;;;;10.29;79.11;100898.11;2104491;84;31080;-62
2021/09/03 03:30:22;;;;;;;13.35;9.10;;;;;;;10.27;79.08;100903.09;2104887;84;33065;-62
2021/09/03 03:33:24;;;;;;;16.93;9.80;;;;;;;10.23;78.99;100901.01;2104272;84;29368;-62
2021/09/03 03:36:26;;;;;;;14.90;9.13;;;;;;;10.22;78.96;100901.08;2105124;84;27655;-62
2021/09/03 03:39:28;;;;;;;14.25;8.60;;;;;;;10.19;79.03;100897.59;2104384;84;29522;-63
2021/09/03 03:42:29;;;;;;;13.05;9.35;;;;;;;10.18;79.08;100894.95;2104255;84;32108;-63
2021/09/03 03:45:31;;;;;;;18.30;9.73;;;;;;;10.18;79.17;100891.83;2103990;83;34203;-62
2021/09/03 03:48:33;;;;;;;13.55;9.20;;;;;;;10.18;79.11;100889.14;2104320;84;29987;-62
2021/09/03 03:51:35;;;;;;;13.83;9.90;;;;;;;10.19;79.22;100893.57;2104395;84;27705;-62
2021/09/03 03:54:37;;;;;;;13.25;9.28;;;;;;;10.21;79.25;100886.80;2104207;84;28771;-62
2021/09/03 03:57:39;;;;;;;18.23;10.32;;;;;;;10.23;79.25;100880.06;2104358;84;32229;-62
2021/09/03 04:00:41;;;;;;;17.25;9.53;;;;;;;10.25;79.37;100885.77;2104307;84;34293;-61
2021/09/03 04:03:42;;;;;;;32.45;10.43;;;;;;;10.26;79.43;100878.14;2104679;84;29345;-62
2021/09/03 04:06:44;;;;;;;19.50;10.05;;;;;;;10.29;79.47;100875.34;2104740;84;28246;-62
2021/09/03 04:09:45;;;;;;;25.68;11.75;;;;;;;10.31;79.65;100875.27;2104382;84;29603;-62
2021/09/03 04:12:47;;;;;;;34.35;12.28;;;;;;;10.35;79.62;100871.55;2104284;84;32269;-62
2021/09/03 04:15:48;;;;;;;23.02;10.35;;;;;;;10.37;79.60;100871.02;2104606;84;33376;-62
2021/09/03 04:18:50;;;;;;;20.27;11.10;;;;;;;10.39;79.57;100862.95;2104684;84;29380;-62
2021/09/03 04:21:52;;;;;;;21.65;11.93;;;;;;;10.41;79.54;100879.38;2104523;84;28145;-62
2021/09/03 04:24:54;;;;;;;25.40;10.30;;;;;;;10.43;79.50;100870.80;2104607;84;28445;-62
2021/09/03 04:27:56;;;;;;;22.05;12.15;;;;;;;10.43;79.43;100872.13;2104654;84;31208;-63
2021/09/03 04:30:58;;;;;;;17.80;11.68;;;;;;;10.45;79.42;100860.03;2104139;84;34385;-62
2021/09/03 04:33:59;;;;;;;19.20;10.95;;;;;;;10.48;79.46;100857.23;2088942;85;29834;-63
2021/09/03 04:37:01;;;;;;;17.65;10.95;;;;;;;10.51;79.55;100861.11;2101578;84;27873;-62
2021/09/03 04:40:05;;;;;;;16.17;9.78;;;;;;;10.54;79.49;100860.13;2101515;84;29610;-63
2021/09/03 04:43:06;;;;;;;17.32;10.43;;;;;;;10.57;79.57;100859.53;2101491;84;31908;-62
2021/09/03 04:46:08;;;;;;;19.00;10.30;;;;;;;10.63;79.55;100853.05;2094104;84;33397;-62
2021/09/03 04:49:10;;;;;;;13.50;9.15;;;;;;;10.71;79.52;100850.94;2085713;85;30325;-63
2021/09/03 04:52:12;;;;;;;13.60;10.13;;;;;;;10.78;79.50;100852.41;2085459;85;27755;-63
2021/09/03 04:55:14;;;;;;;16.60;10.28;;;;;;;10.88;79.51;100852.04;2085511;85;29879;-63
2021/09/03 04:58:16;;;;;;;14.47;9.58;;;;;;;10.96;79.47;100851.72;2085708;85;30481;-62
2021/09/03 05:01:18;;;;;;;13.35;9.88;;;;;;;11.04;79.48;100852.25;2085438;85;34245;-62
2021/09/03 05:04:19;;;;;;;17.07;11.38;;;;;;;11.16;79.54;100856.22;2085655;85;29386;-63
2021/09/03 05:07:21;;;;;;;17.05;12.60;;;;;;;11.28;79.63;100865.06;2085437;84;27717;-62
2021/09/03 05:10:27;;;;;;;19.77;14.33;;;;;;;11.43;79.71;100859.51;2085554;85;28761;-63
2021/09/03 05:13:40;;;;;;;24.27;16.87;;;;;;;11.59;79.80;100862.36;2085444;85;31102;-62
2021/09/03 05:16:45;;;;;;;32.63;20.50;;;;;;;11.78;79.90;100864.22;2085760;85;33544;-63
2021/09/03 05:19:50;;;;;;;32.08;22.22;;;;;;;11.97;79.88;100851.70;2085453;85;30551;-63
2021/09/03 05:22:52;;;;;;;;;;;;;;;12.13;79.84;100847.86;2088108;84;27674;-63
2021/09/03 05:25:54;;;;;;;31.02;21.68;;;;;;;12.31;79.78;100850.62;2085678;85;29036;-63
2021/09/03 05:28:56;;;;;;;29.07;21.95;;;;;;;12.44;79.74;100846.38;2085282;85;31266;-63
2021/09/03 05:31:58;;;;;;;27.40;18.55;;;;;;;12.59;79.69;100850.12;2085363;85;34244;-63
2021/09/03 05:35:00;;;;;;;28.80;19.02;;;;;;;12.75;79.60;100850.70;2085340;85;30217;-63
2021/09/03 05:38:05;;;;;;;28.90;17.73;;;;;;;12.87;79.48;100849.22;2085851;85;27710;-61
2021/09/03 05:41:07;;;;;;;28.23;16.27;;;;;;;13.01;79.31;100848.04;2085582;85;28848;-60
2021/09/03 05:44:09;;;;;;;22.80;15.88;;;;;;;13.14;79.21;100844.25;2085606;85;31059;-61
2021/09/03 05:47:30;;;;;;;26.23;15.72;;;;;;;13.31;79.17;100838.47;2084911;85;32259;-62
2021/09/03 05:50:32;;;;;;;25.80;15.95;;;;;;;13.46;79.05;100845.77;2048012;86;29368;-60
2021/09/03 05:53:34;;;;;;;26.27;14.98;;;;;;;13.63;78.97;100835.91;2048368;86;27737;-61
2021/09/03 05:56:37;;;;;;;26.75;16.77;;;;;;;13.77;78.68;100833.34;2048055;86;29047;-61
2021/09/03 05:59:39;;;;;;;26.65;17.15;;;;;;;13.91;78.67;100833.94;2048564;86;31338;-60
2021/09/03 06:02:41;;;;;;;25.15;16.50;;;;;;;14.08;78.55;100832.13;2048071;86;34214;-61
2021/09/03 06:05:43;;;;;;;23.83;16.52;;;;;;;14.24;78.47;100824.04;2048358;86;29722;-61
2021/09/03 06:08:45;;;;;;;26.02;17.10;;;;;;;14.49;78.45;100826.70;2042022;86;27674;-61
2021/09/03 06:11:47;;;;;;;22.22;15.88;;;;;;;14.79;78.32;100820.03;2037609;86;29006;-61
2021/09/03 06:14:49;;;;;;;21.48;14.73;;;;;;;15.08;78.07;100821.46;2043678;86;33250;-61
2021/09/03 06:17:51;;;;;;;19.10;14.65;;;;;;;15.36;77.77;100825.17;2048050;86;33422;-61
2021/09/03 06:20:53;;;;;;;23.73;15.93;;;;;;;15.64;77.41;100826.15;2048636;86;29141;-61
2021/09/03 06:23:54;;;;;;;23.18;16.35;;;;;;;15.96;77.30;100820.60;2048302;86;27626;-61
2021/09/03 06:27:07;;;;;;;22.17;15.45;;;;;;;16.27;76.91;100815.02;2048201;86;29890;-63
2021/09/03 06:30:10;;;;;;;22.77;14.95;;;;;;;16.61;76.69;100819.55;2048589;86;31006;-63
2021/09/03 06:33:15;;;;;;;21.50;15.10;;;;;;;17.00;76.46;100811.11;2048733;86;33044;-63
2021/09/03 06:36:17;;;;;;;19.70;14.25;;;;;;;17.39;76.16;100807.08;2048364;86;30136;-62
2021/09/03 06:39:20;;;;;;;21.02;14.40;;;;;;;17.83;75.59;100806.25;2048398;86;27704;-62
2021/09/03 06:42:23;;;;;;;21.68;14.07;;;;;;;18.26;75.04;100801.77;2048204;86;28202;-62
2021/09/03 06:45:25;;;;;;;18.82;14.07;;;;;;;18.70;74.66;100803.48;2048337;86;31030;-62
2021/09/03 06:48:27;;;;;;;20.12;14.03;;;;;;;19.18;74.08;100801.70;2044950;86;33614;-60
2021/09/03 06:51:29;;;;;;;17.37;13.62;;;;;;;19.63;73.62;100799.03;2034335;87;30580;-60
2021/09/03 06:54:33;;;;;;;18.87;13.60;;;;;;;20.13;72.92;100793.72;2034502;87;27692;-63
2021/09/03 06:57:34;;;;;;;14.68;11.88;;;;;;;20.63;72.30;100798.16;2034352;87;28704;-61
2021/09/03 07:00:36;;;;;;;18.80;13.32;;;;;;;21.13;71.47;100792.63;2034565;87;31031;-62
2021/09/03 07:03:38;;;;;;;15.98;12.53;;;;;;;21.58;70.08;100793.34;2034664;87;33336;-61
2021/09/03 07:06:40;;;;;;;15.93;12.28;;;;;;;21.95;69.62;100792.30;2034446;87;30661;-61
2021/09/03 07:09:42;;;;;;;19.82;11.85;;;;;;;22.26;68.62;100794.08;2034559;87;27801;-61
2021/09/03 07:12:43;;;;;;;18.95;11.28;;;;;;;22.61;68.21;100793.61;2034859;87;28703;-61
2021/09/03 07:15:45;;;;;;;18.50;11.88;;;;;;;22.96;66.70;100787.70;2034397;87;30675;-61
2021/09/03 07:18:47;;;;;;;13.00;10.80;;;;;;;23.30;66.64;100791.36;2031552;87;33383;-62
2021/09/03 07:21:48;;;;;;;13.22;11.28;;;;;;;23.65;65.33;100787.08;2033047;87;30618;-61
2021/09/03 07:24:50;;;;;;;14.33;10.23;;;;;;;23.85;64.70;100768.69;2034779;87;28224;-62
2021/09/03 07:27:52;;;;;;;13.22;10.78;;;;;;;24.21;63.94;100777.52;2034693;87;29087;-62
2021/09/03 07:30:54;;;;;;;13.70;10.10;;;;;;;24.41;63.51;100775.50;2034305;87;32276;-62
2021/09/03 07:33:56;;;;;;;15.15;10.15;;;;;;;24.68;62.48;100773.72;2034256;87;34175;-62
2021/09/03 07:36:58;;;;;;;14.25;9.43;;;;;;;24.86;62.20;100767.75;2034505;87;29900;-61
2021/09/03 07:40:00;;;;;;;11.75;10.18;;;;;;;25.14;61.78;100764.88;2034796;87;27702;-62
2021/09/03 07:43:06;;;;;;;18.57;9.50;;;;;;;25.48;60.93;100775.59;2034687;87;29031;-61
2021/09/03 07:46:05;;;;;;;16.03;9.90;;;;;;;25.81;60.82;100763.91;2017101;87;31961;-62
2021/09/03 07:49:09;;;;;;;13.58;9.38;;;;;;;26.16;60.00;100770.25;2070698;85;35194;-61
2021/09/03 07:52:12;;;;;;;13.18;10.32;;;;;;;26.40;59.09;100763.95;2053760;86;29167;-62
2021/09/03 07:55:20;;;;;;;15.18;9.43;;;;;;;26.56;58.43;100768.59;2053807;86;27725;-62
2021/09/03 07:58:22;;;;;;;13.80;9.78;;;;;;;26.74;57.45;100775.83;1945021;91;28661;-60
2021/09/03 08:01:24;;;;;;;12.07;9.28;;;;;;;26.89;56.93;100760.92;1956996;90;31067;-61
2021/09/03 08:04:26;;;;;;;16.82;10.00;;;;;;;27.04;56.39;100766.07;1957939;90;34151;-61
2021/09/03 08:07:29;;;;;;;15.43;9.33;;;;;;;27.18;55.95;100757.64;1958135;90;30586;-61
2021/09/03 08:10:32;;;;;;;10.40;9.07;;;;;;;27.30;55.15;100763.11;1958612;90;27739;-60
2021/09/03 08:13:35;;;;;;;10.88;8.55;;;;;;;27.50;54.67;100755.00;1958218;90;28767;-61
2021/09/03 08:16:37;;;;;;;13.22;9.88;;;;;;;27.53;54.13;100754.16;1958551;90;31478;-60
2021/09/03 08:19:39;;;;;;;14.63;9.60;;;;;;;27.58;53.70;100755.84;1957907;90;34294;-60
2021/09/03 08:22:47;;;;;;;14.05;9.55;;;;;;;27.72;53.65;100747.37;1957987;90;30328;-61
2021/09/03 08:25:47;;;;;;;11.43;9.25;;;;;;;27.85;52.96;100750.94;1958361;90;27744;-61
2021/09/03 08:28:49;;;;;;;15.53;9.85;;;;;;;27.85;52.12;100747.30;1957920;90;29538;-61
2021/09/03 08:31:51;;;;;;;16.37;9.45;;;;;;;27.81;51.61;100747.31;1958263;90;31256;-61
2021/09/03 08:34:54;;;;;;;9.80;8.43;;;;;;;27.72;51.33;100744.61;1957934;90;33810;-60
2021/09/03 08:37:57;;;;;;;14.65;10.55;;;;;;;27.68;51.71;100739.11;1958221;90;29480;-60
2021/09/03 08:41:00;;;;;;;11.05;9.83;;;;;;;27.42;51.07;100737.97;1958092;90;27718;-61
2021/09/03 08:44:03;;;;;;;11.38;9.70;;;;;;;27.19;51.37;100735.98;1958398;90;29355;-61
2021/09/03 08:47:05;;;;;;;14.00;9.30;;;;;;;26.98;51.25;100739.25;1957932;90;31910;-61
2021/09/03 08:50:09;;;;;;;13.20;9.43;;;;;;;26.76;51.12;100736.66;1950149;90;32970;-62
2021/09/03 08:53:20;;;;;;;11.85;8.83;;;;;;;26.52;51.74;100739.77;1946102;91;30091;-61
2021/09/03 08:56:23;;;;;;;11.18;8.75;;;;;;;26.32;51.38;100733.70;1898161;93;27689;-60
2021/09/03 08:59:24;;;;;;;13.58;8.95;;;;;;;26.24;51.77;100727.68;1897972;93;28671;-61
2021/09/03 09:02:26;;;;;;;11.53;8.70;;;;;;;26.12;51.43;100735.41;1966467;89;32190;-61
2021/09/03 09:05:59;;;;;;;19.42;8.63;;;;;;;26.01;51.62;100729.67;1979596;89;33842;-61
2021/09/03 09:09:04;;;;;;;11.78;8.18;;;;;;;25.86;51.73;100728.59;1978564;89;29725;-60
2021/09/03 09:12:12;;;;;;;11.00;7.22;;;;;;;25.68;51.94;100725.94;1979971;89;27762;-61
2021/09/03 09:15:14;;;;;;;11.97;9.18;;;;;;;25.65;52.25;100727.14;1979696;89;29258;-60
2021/09/03 09:18:21;;;;;;;10.68;8.20;;;;;;;25.64;52.04;100722.67;1979663;89;31722;-60
2021/09/03 09:21:32;;;;;;;12.15;8.35;;;;;;;25.71;51.71;100718.26;1976170;89;33563;-60
2021/09/03 09:24:34;;;;;;;12.43;8.38;;;;;;;25.57;51.44;100711.99;1979497;89;30168;-62
2021/09/03 09:27:35;;;;;;;12.88;8.65;;;;;;;25.49;51.78;100705.95;1979866;89;28340;-61
2021/09/03 09:30:41;;;;;;;13.95;8.20;;;;;;;25.47;51.25;100707.51;1979605;89;29982;-61
2021/09/03 09:33:46;;;;;;;11.43;8.53;;;;;;;25.44;51.65;100711.09;1979982;89;32425;-60
2021/09/03 09:36:52;;;;;;;12.03;8.63;;;;;;;25.34;51.08;100712.56;1979131;89;34163;-70
2021/09/03 09:39:56;;;;;;;11.30;7.80;;;;;;;25.03;51.05;100704.31;1979970;89;30206;-68
2021/09/03 09:42:58;;;;;;;9.60;7.15;;;;;;;24.62;51.41;100709.47;1980135;89;27665;-69
2021/09/03 09:46:28;;;;;;;13.00;7.83;;;;;;;24.41;51.73;100702.43;1979782;89;29702;-68
2021/09/03 09:49:30;;;;;;;11.65;7.55;;;;;;;24.18;51.55;100702.05;1976124;89;31852;-68
2021/09/03 09:52:38;;;;;;;15.05;8.45;;;;;;;24.02;51.96;100695.03;1958606;90;33029;-69
2021/09/03 09:55:40;;;;;;;10.50;7.15;;;;;;;23.99;52.20;100691.23;1958035;90;29348;-68
2021/09/03 09:58:42;;;;;;;9.30;7.42;;;;;;;23.97;51.86;100685.92;1988391;85;27710;-68
2021/09/03 10:01:47;;;;;;;12.03;6.87;;;;;;;24.00;52.47;100682.84;2063345;86;29536;-68
2021/09/03 10:04:49;;;;;;;9.20;7.28;;;;;;;24.10;52.71;100672.71;2063000;86;31029;-69
2021/09/03 10:07:51;;;;;;;8.40;6.83;;;;;;;24.23;52.24;100660.01;2063332;86;33166;-69
2021/09/03 10:10:53;;;;;;;10.75;7.08;;;;;;;24.44;52.79;100660.16;2063354;86;29309;-68
2021/09/03 10:13:54;;;;;;;15.95;7.97;;;;;;;24.63;52.58;100656.40;2063331;86;27780;-70
2021/09/03 10:16:57;;;;;;;9.43;7.25;;;;;;;24.75;52.40;100654.27;2063354;86;29452;-68
2021/09/03 10:19:59;;;;;;;12.23;7.50;;;;;;;24.71;52.03;100651.00;2063212;86;31015;-61
2021/09/03 10:23:01;;;;;;;10.75;8.08;;;;;;;24.48;52.06;100647.88;2062813;86;34165;-61
2021/09/03 10:26:10;;;;;;;10.45;8.28;;;;;;;24.28;51.77;100654.90;2062937;86;30619;-63
2021/09/03 10:29:29;;;;;;;11.08;7.33;;;;;;;24.06;51.75;100648.55;2062644;86;27760;-61
2021/09/03 10:32:36;;;;;;;11.57;6.75;;;;;;;23.87;51.87;100637.19;2062992;86;29537;-63
2021/09/03 10:35:58;;;;;;;8.03;6.25;;;;;;;23.80;52.01;100639.19;2034977;87;27756;-62
2021/09/03 10:39:24;;;;;;;9.85;7.60;;;;;;;23.72;52.33;100645.08;2035272;87;33079;-62
2021/09/03 10:42:48;;;;;;;9.40;6.50;;;;;;;23.74;52.64;100642.53;2035122;87;30616;-63
2021/09/03 10:45:52;;;;;;;7.40;5.97;;;;;;;23.83;52.17;100638.86;2035358;87;27817;-62
2021/09/03 10:48:54;;;;;;;10.90;6.37;;;;;;;23.80;52.20;100635.09;2035428;87;28599;-63
2021/09/03 10:51:56;;;;;;;8.08;6.00;;;;;;;23.83;52.10;100630.65;2034988;87;32101;-62
2021/09/03 10:54:59;;;;;;;11.57;6.10;;;;;;;23.85;52.58;100638.72;2004817;87;35469;-63
2021/09/03 10:58:02;;;;;;;12.18;6.40;;;;;;;23.81;52.49;100634.08;2035033;87;30729;-63
2021/09/03 11:01:16;;;;;;;8.68;6.75;;;;;;;23.82;52.44;100622.61;2035151;87;27657;-63
2021/09/03 11:04:21;;;;;;;7.58;5.92;;;;;;;23.74;52.13;100623.38;2035499;87;29601;-64
2021/09/03 11:07:26;;;;;;;7.80;6.33;;;;;;;23.76;52.60;100613.64;2035339;87;31086;-63
2021/09/03 11:10:30;;;;;;;8.68;6.30;;;;;;;23.76;52.57;100604.06;2032768;87;33788;-62
2021/09/03 11:13:48;;;;;;;11.23;7.73;;;;;;;23.76;52.72;100606.80;2035241;87;29526;-62
2021/09/03 11:16:58;;;;;;;8.98;7.37;;;;;;;23.75;52.59;100609.19;2035479;87;27779;-62
2021/09/03 11:20:08;;;;;;;11.85;7.12;;;;;;;23.66;52.26;100600.06;2035163;87;28817;-62
2021/09/03 11:23:11;;;;;;;12.25;6.87;;;;;;;23.58;52.45;100601.33;2035430;87;31168;-62
2021/09/03 11:26:16;;;;;;;9.45;6.58;;;;;;;23.55;52.57;100597.03;2035218;87;33030;-63
2021/09/03 11:29:33;;;;;;;10.03;6.72;;;;;;;23.57;52.84;100596.37;2005211;87;29343;-62
2021/09/03 11:32:38;;;;;;;7.10;5.37;;;;;;;23.61;52.59;100591.45;1985384;89;27884;-63
2021/09/03 11:35:41;;;;;;;9.05;6.20;;;;;;;23.57;52.00;100588.17;2071070;84;28643;-63
2021/09/03 11:38:44;;;;;;;8.13;5.95;;;;;;;23.58;51.97;100593.97;2071778;85;31098;-63
2021/09/03 11:41:51;;;;;;;9.90;6.05;;;;;;;23.65;52.46;100585.51;2041700;85;33011;-62
2021/09/03 11:45:12;;;;;;;10.93;6.72;;;;;;;23.70;52.32;100579.56;2071848;85;30477;-62
2021/09/03 11:48:16;;;;;;;9.93;6.22;;;;;;;23.74;52.21;100583.72;2072153;85;27505;-62
2021/09/03 11:51:22;;;;;;;8.30;6.65;;;;;;;23.75;52.18;100579.97;2071964;85;29478;-62
2021/09/03 11:54:25;;;;;;;7.12;5.80;;;;;;;23.72;51.50;100565.75;2071806;85;31889;-62
2021/09/03 11:57:28;;;;;;;7.70;5.75;;;;;;;23.69;51.82;100562.80;2071495;85;33696;-63
2021/09/03 12:00:42;;;;;;;9.38;6.40;;;;;;;23.73;51.82;100566.11;2071929;85;28939;-63
2021/09/03 12:03:46;;;;;;;;;;;;;;;23.73;51.62;100564.22;2074376;85;28225;-62
2021/09/03 12:06:49;;;;;;;8.10;6.55;;;;;;;23.69;51.16;100561.95;2071692;85;28910;-63
2021/09/03 12:09:56;;;;;;;12.33;6.53;;;;;;;23.64;51.19;100562.42;2071477;85;32303;-61
2021/09/03 12:13:09;;;;;;;9.95;6.67;;;;;;;23.56;51.26;100559.10;2071801;85;33780;-62
2021/09/03 12:16:15;;;;;;;8.58;6.70;;;;;;;23.60;51.42;100557.75;2070684;84;29627;-63
2021/09/03 12:19:23;;;;;;;7.85;6.05;;;;;;;23.67;51.28;100561.59;2071722;85;27743;-63
2021/09/03 12:22:25;;;;;;;13.83;6.92;;;;;;;23.66;51.30;100554.41;2071920;85;28696;-62
2021/09/03 12:25:32;;;;;;;9.13;6.75;;;;;;;23.72;51.18;100554.81;2071602;85;32288;-62
2021/09/03 12:28:38;;;;;;;8.90;6.80;;;;;;;23.74;51.47;100550.05;2072331;85;33254;-62
2021/09/03 12:31:58;;;;;;;13.28;6.80;;;;;;;23.78;51.15;100547.33;2071800;85;29341;-62
2021/09/03 12:35:13;;;;;;;8.90;7.55;;;;;;;23.77;51.24;100546.48;2070404;84;27656;-62
2021/09/03 12:38:32;;;;;;;8.93;7.35;;;;;;;23.76;50.80;100546.13;2068929;86;33560;-62
2021/09/03 12:41:47;;;;;;;11.88;7.17;;;;;;;23.69;50.84;100540.91;2069097;86;31023;-63
2021/09/03 12:45:04;;;;;;;10.53;8.33;;;;;;;23.63;50.58;100537.45;2069176;86;32954;-63
2021/09/03 12:48:18;;;;;;;9.40;6.33;;;;;;;23.44;50.55;100506.50;2068909;86;29744;-63
2021/09/03 12:51:29;;;;;;;8.27;6.93;;;;;;;23.56;51.18;100519.94;2067613;85;28050;-63
2021/09/03 12:54:33;;;;;;;10.38;6.40;;;;;;;23.61;51.56;100518.45;2068839;86;28849;-63
2021/09/03 12:57:37;;;;;;;10.93;7.47;;;;;;;23.66;51.37;100516.11;2069311;86;32396;-63
2021/09/03 13:00:41;;;;;;;12.83;7.37;;;;;;;23.72;51.30;100508.30;2069625;86;32997;-64
2021/09/03 13:03:44;;;;;;;9.58;6.67;;;;;;;23.72;51.08;100508.30;2069221;86;29550;-62
2021/09/03 13:06:48;;;;;;;12.53;7.33;;;;;;;23.67;51.33;100506.02;2068770;86;28262;-64
2021/09/03 13:09:52;;;;;;;10.48;8.03;;;;;;;23.59;50.92;100504.06;2069335;86;28838;-63
2021/09/03 13:12:54;;;;;;;10.15;7.25;;;;;;;23.57;51.56;100499.78;2068747;86;32144;-63
2021/09/03 13:15:57;;;;;;;10.55;7.80;;;;;;;23.55;51.18;100501.80;2068749;86;34023;-63
2021/09/03 13:19:00;;;;;;;8.65;7.58;;;;;;;23.54;51.59;100498.23;2068927;86;29423;-63
2021/09/03 13:22:03;;;;;;;15.90;7.53;;;;;;;23.54;51.41;100495.98;2069534;85;27669;-63
2021/09/03 13:25:08;;;;;;;10.75;8.40;;;;;;;23.53;51.35;100495.14;2069076;86;29385;-63
2021/09/03 13:28:12;;;;;;;8.23;7.12;;;;;;;23.52;51.51;100494.78;2069046;86;31714;-63
2021/09/03 13:31:19;;;;;;;8.15;6.72;;;;;;;23.50;51.39;100500.39;2068850;86;32886;-63
2021/09/03 13:34:24;;;;;;;9.70;7.40;;;;;;;23.49;51.21;100495.97;2069301;84;29531;-63
2021/09/03 13:37:25;;;;;;;12.43;7.90;;;;;;;23.45;51.14;100495.92;2072075;85;27707;-63
2021/09/03 13:40:27;;;;;;;9.88;7.47;;;;;;;23.40;51.44;100491.42;2071485;85;29595;-63
2021/09/03 13:43:30;;;;;;;9.18;6.83;;;;;;;23.34;51.65;100481.09;2071563;85;31032;-63
2021/09/03 13:46:32;;;;;;;9.90;7.95;;;;;;;23.32;51.36;100481.26;2071460;86;33868;-62
2021/09/03 13:49:35;;;;;;;8.70;6.92;;;;;;;23.30;51.53;100474.23;2071485;86;30520;-62
2021/09/03 13:52:40;;;;;;;12.75;8.08;;;;;;;23.26;51.55;100470.09;2071603;86;27852;-63
2021/09/03 13:55:42;;;;;;;7.87;6.45;;;;;;;23.24;51.71;100467.52;2071494;86;29928;-63
2021/09/03 13:58:45;;;;;;;8.83;7.20;;;;;;;23.24;51.89;100462.05;2071804;85;31874;-63
2021/09/03 14:01:47;;;;;;;8.88;7.65;;;;;;;23.23;51.48;100455.36;2071521;86;34014;-62
2021/09/03 14:04:50;;;;;;;8.70;7.25;;;;;;;23.21;51.20;100452.27;2071789;85;30479;-64